createdAt,value
2023-02-01T00:00:43.766Z,100207.94
2023-02-01T00:03:13.741Z,100205.28
2023-02-01T00:05:41.404Z,100220.06
2023-02-01T00:08:10.731Z,100212.22
2023-02-01T00:10:38.360Z,100218.34
2023-02-01T00:13:06.240Z,100222.69
2023-02-01T00:15:34.802Z,100218.31
2023-02-01T00:18:02.630Z,100217.44
2023-02-01T00:20:30.251Z,100211.31
2023-02-01T00:22:58.013Z,100220.94
2023-02-01T00:28:01.709Z,100216.56
2023-02-01T00:30:29.376Z,100217.44
2023-02-01T00:32:57.197Z,100213.94
2023-02-01T00:35:24.921Z,100213.09
2023-02-01T00:37:52.909Z,100213.97
2023-02-01T00:40:21.043Z,100218.31
2023-02-01T00:42:49.008Z,100214.88
2023-02-01T00:45:18.330Z,100205.25
2023-02-01T00:47:46.145Z,100210.50
2023-02-01T00:50:13.946Z,100188.69
2023-02-01T00:52:41.685Z,100193.09
2023-02-01T00:55:09.861Z,100182.66
2023-02-01T00:57:37.744Z,100181.75
2023-02-01T01:00:06.423Z,100166.06
2023-02-01T01:02:35.519Z,100166.06
2023-02-01T01:05:03.626Z,100155.59
2023-02-01T01:07:31.396Z,100165.19
2023-02-01T01:09:59.186Z,100174.78
2023-02-01T01:12:27.049Z,100175.56
2023-02-01T01:14:54.748Z,100194.78
2023-02-01T01:17:22.452Z,100178.22
2023-02-01T01:19:51.612Z,100182.59
2023-02-01T01:22:19.806Z,100193.91
2023-02-01T01:24:47.544Z,100207.84
2023-02-01T01:27:15.274Z,100203.50
2023-02-01T01:29:43.072Z,100207.00
2023-02-01T01:32:10.749Z,100180.81
2023-02-01T01:34:38.771Z,100165.97
2023-02-01T01:37:07.853Z,100200.88
2023-02-01T01:39:35.595Z,100196.53
2023-02-01T01:42:03.382Z,100194.78
2023-02-01T01:44:57.935Z,100196.56
2023-02-01T01:47:25.729Z,100187.84
2023-02-01T01:49:53.441Z,100183.50
2023-02-01T01:52:22.492Z,100190.44
2023-02-01T01:54:51.113Z,100150.16
2023-02-01T01:57:20.023Z,100178.16
2023-02-01T01:59:49.093Z,100156.41
2023-02-01T02:02:16.951Z,100173.03
2023-02-01T02:04:44.747Z,100161.69
2023-02-01T02:07:13.733Z,100203.41
2023-02-01T02:09:54.612Z,100165.97
2023-02-01T02:12:26.385Z,100155.44
2023-02-01T02:14:54.263Z,100170.31
2023-02-01T02:17:29.076Z,100161.59
2023-02-01T02:20:33.394Z,100160.72
2023-02-01T02:23:36.946Z,100166.81
2023-02-01T02:26:30.517Z,100163.25
2023-02-01T02:29:27.537Z,100159.75
2023-02-01T02:32:06.645Z,100152.75
2023-02-01T02:34:36.413Z,100159.75
2023-02-01T02:37:07.690Z,100165.78
2023-02-01T02:39:41.182Z,100146.63
2023-02-01T02:42:29.862Z,100124.69
2023-02-01T02:45:17.585Z,100127.31
2023-02-01T02:47:48.569Z,100139.50
2023-02-01T02:50:38.331Z,100156.88
2023-02-01T02:53:25.341Z,100146.41
2023-02-01T02:55:53.138Z,100144.72
2023-02-01T02:58:38.772Z,100134.28
2023-02-01T03:01:25.218Z,100138.63
2023-02-01T03:04:09.870Z,100141.31
2023-02-01T03:06:40.354Z,100136.97
2023-02-01T03:09:12.315Z,100141.31
2023-02-01T03:11:57.588Z,100138.75
2023-02-01T03:14:25.283Z,100140.44
2023-02-01T03:16:55.846Z,100109.75
2023-02-01T03:19:24.257Z,100133.50
2023-02-01T03:24:34.329Z,100125.72
2023-02-01T03:27:05.221Z,100121.31
2023-02-01T03:29:35.653Z,100113.47
2023-02-01T03:32:04.463Z,100119.63
2023-02-01T03:34:32.136Z,100117.84
2023-02-01T03:37:02.393Z,100121.31
2023-02-01T03:39:33.233Z,100048.97
2023-02-01T03:42:01.927Z,100069.84
2023-02-01T03:44:31.591Z,100116.13
2023-02-01T03:47:01.115Z,100116.09
2023-02-01T03:49:30.427Z,100112.66
2023-02-01T03:51:58.350Z,100110.94
2023-02-01T03:54:27.516Z,100104.88
2023-02-01T03:56:56.545Z,100101.38
2023-02-01T03:59:25.041Z,100106.63
2023-02-01T04:01:53.836Z,100062.94
2023-02-01T04:04:21.767Z,100110.13
2023-02-01T04:06:50.518Z,100110.09
2023-02-01T04:09:18.438Z,100091.75
2023-02-01T04:11:47.565Z,100094.47
2023-02-01T04:14:15.258Z,100087.44
2023-02-01T04:16:43.078Z,100091.81
2023-02-01T04:19:10.827Z,100080.53
2023-02-01T04:21:38.776Z,100078.78
2023-02-01T04:24:07.693Z,100079.66
2023-02-01T04:26:35.426Z,100065.75
2023-02-01T04:29:04.643Z,100063.13
2023-02-01T04:31:32.383Z,100064.88
2023-02-01T04:34:00.306Z,100068.34
2023-02-01T04:36:27.973Z,100072.66
2023-02-01T04:38:55.704Z,100077.03
2023-02-01T04:41:23.782Z,100082.25
2023-02-01T04:43:52.143Z,100070.97
2023-02-01T04:46:21.277Z,100052.63
2023-02-01T04:48:49.161Z,100082.31
2023-02-01T04:51:16.949Z,100089.25
2023-02-01T04:53:44.754Z,100097.09
2023-02-01T04:56:12.598Z,100084.09
2023-02-01T04:58:40.381Z,100057.94
2023-02-01T05:01:08.798Z,100081.47
2023-02-01T05:03:38.058Z,100087.59
2023-02-01T05:06:06.071Z,100086.72
2023-02-01T05:08:34.106Z,100097.19
2023-02-01T05:11:03.435Z,100077.16
2023-02-01T05:13:48.447Z,100084.16
2023-02-01T05:16:16.189Z,100083.25
2023-02-01T05:18:45.299Z,100094.56
2023-02-01T05:21:12.971Z,100095.44
2023-02-01T05:23:54.687Z,100096.38
2023-02-01T05:26:22.462Z,100084.09
2023-02-01T05:28:50.197Z,100078.94
2023-02-01T05:31:18.161Z,100071.09
2023-02-01T05:33:47.358Z,100089.31
2023-02-01T05:36:15.133Z,100078.88
2023-02-01T05:38:42.912Z,100069.28
2023-02-01T05:41:10.620Z,100090.22
2023-02-01T05:43:38.779Z,100098.03
2023-02-01T05:46:06.682Z,100081.50
2023-02-01T05:48:34.482Z,100085.84
2023-02-01T05:51:03.936Z,100078.03
2023-02-01T05:53:31.737Z,100083.22
2023-02-01T05:55:59.532Z,100098.03
2023-02-01T05:58:27.414Z,100096.25
2023-02-01T06:00:55.112Z,100078.00
2023-02-01T06:03:23.152Z,100079.72
2023-02-01T06:05:50.875Z,100069.25
2023-02-01T06:08:21.078Z,100066.59
2023-02-01T06:10:51.653Z,100064.91
2023-02-01T06:13:21.238Z,100070.09
2023-02-01T06:15:48.893Z,100061.38
2023-02-01T06:18:17.168Z,100062.28
2023-02-01T06:20:44.991Z,100072.72
2023-02-01T06:23:13.819Z,100071.88
2023-02-01T06:25:52.664Z,100091.00
2023-02-01T06:28:21.180Z,100058.72
2023-02-01T06:30:49.254Z,100138.56
2023-02-01T06:33:17.503Z,100126.38
2023-02-01T06:35:46.529Z,100013.22
2023-02-01T06:38:14.691Z,99962.75
2023-02-01T06:40:43.278Z,100130.16
2023-02-01T06:43:12.762Z,99912.84
2023-02-01T06:45:42.853Z,100021.13
2023-02-01T06:48:10.823Z,99995.50
2023-02-01T06:50:39.873Z,99755.06
2023-02-01T06:53:07.916Z,99739.09
2023-02-01T06:55:35.918Z,99985.28
2023-02-01T06:58:04.298Z,100040.19
2023-02-01T07:00:37.431Z,100109.34
2023-02-01T07:03:05.481Z,100168.28
2023-02-01T07:05:33.415Z,100001.97
2023-02-01T07:08:01.346Z,100030.63
2023-02-01T07:10:29.429Z,99831.81
2023-02-01T07:12:58.833Z,99998.72
2023-02-01T07:15:27.984Z,100045.44
2023-02-01T07:17:59.287Z,100158.09
2023-02-01T07:20:44.575Z,100157.19
2023-02-01T07:23:12.727Z,99986.13
2023-02-01T07:25:40.843Z,99537.31
2023-02-01T07:28:12.496Z,100045.53
2023-02-01T07:30:43.907Z,100075.69
2023-02-01T07:33:13.333Z,100121.53
2023-02-01T07:35:41.236Z,100118.09
2023-02-01T07:38:09.191Z,100128.50
2023-02-01T07:40:37.055Z,100132.91
2023-02-01T07:43:07.004Z,100127.63
2023-02-01T07:45:36.923Z,100132.88
2023-02-01T07:48:05.323Z,100125.00
2023-02-01T07:50:34.356Z,100131.16
2023-02-01T07:53:02.479Z,100123.34
2023-02-01T07:55:30.203Z,100132.03
2023-02-01T07:57:59.787Z,100130.31
2023-02-01T08:00:45.467Z,100130.31
2023-02-01T08:03:13.337Z,100125.94
2023-02-01T08:05:42.450Z,100132.94
2023-02-01T08:08:10.123Z,100111.94
2023-02-01T08:10:37.848Z,100135.56
2023-02-01T08:13:05.549Z,100132.09
2023-02-01T08:15:33.191Z,100139.91
2023-02-01T08:18:03.194Z,100143.41
2023-02-01T08:20:30.915Z,100131.25
2023-02-01T08:23:00.098Z,100125.16
2023-02-01T08:25:28.543Z,100142.59
2023-02-01T08:27:56.447Z,100152.13
2023-02-01T08:30:24.461Z,100144.31
2023-02-01T08:32:52.488Z,100168.69
2023-02-01T08:35:21.177Z,100165.22
2023-02-01T08:37:51.603Z,100167.84
2023-02-01T08:40:22.760Z,100168.72
2023-02-01T08:42:53.488Z,100182.63
2023-02-01T08:45:21.597Z,100178.28
2023-02-01T08:47:50.433Z,100168.72
2023-02-01T08:50:26.794Z,100162.63
2023-02-01T08:52:54.895Z,100173.09
2023-02-01T08:55:24.094Z,100180.03
2023-02-01T08:57:51.802Z,100181.78
2023-02-01T09:00:20.282Z,100187.91
2023-02-01T09:02:47.957Z,100188.78
2023-02-01T09:05:17.392Z,100182.66
2023-02-01T09:07:45.068Z,100186.19
2023-02-01T09:10:14.554Z,100166.16
2023-02-01T09:12:44.731Z,100169.66
2023-02-01T09:15:12.588Z,100160.97
2023-02-01T09:17:42.727Z,100172.31
2023-02-01T09:20:11.938Z,100163.63
2023-02-01T09:22:39.668Z,100168.88
2023-02-01T09:25:08.656Z,100168.88
2023-02-01T09:27:36.431Z,100145.34
2023-02-01T09:30:07.716Z,100148.81
2023-02-01T09:32:35.498Z,100158.41
2023-02-01T09:35:03.175Z,100154.94
2023-02-01T09:37:31.038Z,100164.47
2023-02-01T09:39:58.760Z,100157.53
2023-02-01T09:42:42.727Z,100144.44
2023-02-01T09:45:18.166Z,100134.88
2023-02-01T09:47:49.211Z,100144.47
2023-02-01T09:50:21.651Z,100146.22
2023-02-01T09:52:54.213Z,100147.06
2023-02-01T09:55:24.110Z,100159.28
2023-02-01T09:57:53.232Z,100144.47
2023-02-01T10:00:25.372Z,100158.44
2023-02-01T10:02:53.407Z,100157.59
2023-02-01T10:05:24.457Z,100141.91
2023-02-01T10:07:56.885Z,100144.53
2023-02-01T10:10:28.712Z,100148.88
2023-02-01T10:13:24.901Z,100138.47
2023-02-01T10:16:13.973Z,100137.56
2023-02-01T10:18:57.485Z,100108.78
2023-02-01T10:21:39.884Z,100140.19
2023-02-01T10:24:22.659Z,100137.56
2023-02-01T10:26:53.119Z,100146.28
2023-02-01T10:29:22.184Z,100134.09
2023-02-01T10:31:51.330Z,100124.50
2023-02-01T10:34:21.634Z,100146.31
2023-02-01T10:36:54.761Z,100148.94
2023-02-01T10:39:22.473Z,100140.22
2023-02-01T10:41:50.207Z,100148.94
2023-02-01T10:44:19.316Z,100150.66
2023-02-01T10:46:47.015Z,100132.38
2023-02-01T10:49:19.005Z,100135.88
2023-02-01T10:51:50.660Z,100136.72
2023-02-01T10:54:21.211Z,100119.25
2023-02-01T10:56:49.311Z,100125.38
2023-02-01T10:59:18.090Z,100114.03
2023-02-01T11:01:47.571Z,100123.66
2023-02-01T11:04:17.622Z,100130.63
2023-02-01T11:06:46.143Z,100093.13
2023-02-01T11:09:19.031Z,100088.81
2023-02-01T11:11:57.901Z,100113.22
2023-02-01T11:14:37.826Z,100109.75
2023-02-01T11:17:19.980Z,100108.00
2023-02-01T11:19:49.110Z,100108.00
2023-02-01T11:22:16.835Z,100039.13
2023-02-01T11:24:46.944Z,100037.38
2023-02-01T11:27:26.544Z,100105.38
2023-02-01T11:29:57.200Z,100074.00
2023-02-01T11:32:25.197Z,100091.47
2023-02-01T11:34:55.779Z,100093.19
2023-02-01T11:37:25.484Z,100099.28
2023-02-01T11:39:57.310Z,100096.72
2023-02-01T11:42:25.319Z,100077.53
2023-02-01T11:44:53.179Z,100084.50
2023-02-01T11:47:25.236Z,100082.75
2023-02-01T11:49:54.885Z,100086.28
2023-02-01T11:52:46.033Z,100039.22
2023-02-01T11:55:33.236Z,100087.16
2023-02-01T11:58:08.640Z,100013.13
2023-02-01T12:01:06.021Z,100047.97
2023-02-01T12:04:01.256Z,100053.22
2023-02-01T12:06:36.667Z,100034.03
2023-02-01T12:09:14.454Z,100057.56
2023-02-01T12:11:53.501Z,100048.00
2023-02-01T12:14:26.967Z,100044.50
2023-02-01T12:17:03.852Z,100043.63
2023-02-01T12:19:44.552Z,100052.34
2023-02-01T12:22:23.945Z,100041.00
2023-02-01T12:25:01.190Z,100020.97
2023-02-01T12:27:46.270Z,100019.22
2023-02-01T12:30:26.554Z,100051.47
2023-02-01T12:33:00.097Z,100047.09
2023-02-01T12:35:44.433Z,100043.63
2023-02-01T12:38:21.702Z,100030.56
2023-02-01T12:40:57.200Z,100014.00
2023-02-01T12:43:27.356Z,100029.69
2023-02-01T12:45:57.988Z,100006.16
2023-02-01T12:48:29.965Z,100008.78
2023-02-01T12:51:00.187Z,99953.03
2023-02-01T12:53:32.810Z,100007.03
2023-02-01T12:56:02.333Z,99995.72
2023-02-01T12:58:32.383Z,99994.84
2023-02-01T13:01:01.547Z,99990.50
2023-02-01T13:06:06.154Z,99997.47
2023-02-01T13:08:41.041Z,99964.34
2023-02-01T13:11:14.705Z,99951.28
2023-02-01T13:13:47.032Z,99938.25
2023-02-01T13:16:18.837Z,100003.56
2023-02-01T13:18:48.736Z,99993.09
2023-02-01T13:21:18.237Z,99933.88
2023-02-01T13:23:48.172Z,99983.50
2023-02-01T13:26:16.101Z,99990.47
2023-02-01T13:28:46.516Z,99956.53
2023-02-01T13:31:29.494Z,99987.88
2023-02-01T13:34:44.279Z,99990.47
2023-02-01T13:37:20.706Z,99985.25
2023-02-01T13:39:55.477Z,99988.75
2023-02-01T13:42:24.552Z,99992.25
2023-02-01T13:44:53.213Z,99980.91
2023-02-01T13:47:25.237Z,99975.66
2023-02-01T13:49:53.004Z,99999.19
2023-02-01T13:52:29.682Z,99992.22
2023-02-01T13:55:16.338Z,99999.19
2023-02-01T13:57:45.566Z,99953.91
2023-02-01T14:00:31.454Z,100001.81
2023-02-01T14:03:18.895Z,99993.13
2023-02-01T14:06:37.109Z,99992.25
2023-02-01T14:09:15.289Z,99976.56
2023-02-01T14:11:45.766Z,99989.63
2023-02-01T14:14:40.455Z,100000.94
2023-02-01T14:17:41.225Z,99994.00
2023-02-01T14:20:44.591Z,100006.16
2023-02-01T14:23:15.095Z,99995.72
2023-02-01T14:25:42.769Z,99992.25
2023-02-01T14:28:21.733Z,100000.06
2023-02-01T14:30:49.771Z,99998.34
2023-02-01T14:33:22.449Z,99995.72
2023-02-01T14:36:03.481Z,99996.59
2023-02-01T14:38:32.344Z,99996.59
2023-02-01T14:41:16.745Z,99992.22
2023-02-01T14:44:16.380Z,100000.94
2023-02-01T14:47:27.005Z,100014.00
2023-02-01T14:49:57.575Z,100009.66
2023-02-01T14:52:31.824Z,100011.41
2023-02-01T14:55:03.438Z,100018.38
2023-02-01T14:57:33.180Z,99966.97
2023-02-01T15:00:09.745Z,100009.66
2023-02-01T15:02:37.481Z,100005.28
2023-02-01T15:05:25.108Z,100014.00
2023-02-01T15:07:53.070Z,100014.00
2023-02-01T15:10:20.822Z,100017.50
2023-02-01T15:12:49.425Z,100016.63
2023-02-01T15:15:19.846Z,100027.94
2023-02-01T15:17:55.017Z,100025.34
2023-02-01T15:20:23.954Z,100021.84
2023-02-01T15:22:55.785Z,99982.63
2023-02-01T15:25:25.002Z,100005.28
2023-02-01T15:27:53.285Z,100025.34
2023-02-01T15:30:23.818Z,100034.03
2023-02-01T15:32:51.716Z,99994.00
2023-02-01T15:35:44.354Z,100032.31
2023-02-01T15:38:33.140Z,100025.31
2023-02-01T15:41:02.190Z,100027.06
2023-02-01T15:43:30.695Z,100034.91
2023-02-01T15:46:00.300Z,100033.16
2023-02-01T15:48:28.840Z,100031.41
2023-02-01T15:50:57.158Z,100034.03
2023-02-01T15:53:25.839Z,100020.97
2023-02-01T15:55:54.199Z,100024.47
2023-02-01T15:58:22.845Z,100022.72
2023-02-01T16:00:51.962Z,100023.59
2023-02-01T16:03:36.789Z,100014.00
2023-02-01T16:06:05.829Z,100031.41
2023-02-01T16:08:35.641Z,100002.69
2023-02-01T16:11:15.189Z,100041.03
2023-02-01T16:13:43.143Z,100039.28
2023-02-01T16:16:14.862Z,100045.38
2023-02-01T16:18:44.099Z,100040.13
2023-02-01T16:21:11.856Z,100049.72
2023-02-01T16:23:40.057Z,100040.13
2023-02-01T16:26:07.898Z,100034.03
2023-02-01T16:28:36.136Z,100043.63
2023-02-01T16:31:03.972Z,100040.13
2023-02-01T16:33:32.002Z,100024.44
2023-02-01T16:36:03.207Z,100027.06
2023-02-01T16:38:31.579Z,100021.84
2023-02-01T16:41:00.388Z,100040.13
2023-02-01T16:43:28.452Z,100044.50
2023-02-01T16:45:57.281Z,100061.06
2023-02-01T16:48:26.494Z,100054.94
2023-02-01T16:50:56.092Z,100059.31
2023-02-01T16:53:25.829Z,100048.00
2023-02-01T16:55:54.931Z,100054.06
2023-02-01T16:58:23.105Z,100060.19
2023-02-01T17:00:53.295Z,100054.06
2023-02-01T17:03:21.949Z,100045.38
2023-02-01T17:05:51.411Z,100061.06
2023-02-01T17:08:20.552Z,100059.31
2023-02-01T17:10:49.732Z,100059.31
2023-02-01T17:13:17.796Z,100061.06
2023-02-01T17:15:51.156Z,100055.84
2023-02-01T17:18:19.132Z,100069.78
2023-02-01T17:20:48.499Z,100041.91
2023-02-01T17:23:16.596Z,100084.59
2023-02-01T17:25:44.355Z,100080.22
2023-02-01T17:28:13.440Z,100079.34
2023-02-01T17:30:41.281Z,100079.34
2023-02-01T17:33:22.193Z,100091.56
2023-02-01T17:35:50.610Z,100094.19
2023-02-01T17:38:18.841Z,100093.31
2023-02-01T17:40:46.507Z,100098.53
2023-02-01T17:43:16.894Z,100110.75
2023-02-01T17:45:51.571Z,100093.28
2023-02-01T17:48:19.763Z,100118.56
2023-02-01T17:50:48.010Z,100115.09
2023-02-01T17:53:16.824Z,100108.13
2023-02-01T17:55:46.135Z,100093.28
2023-02-01T17:58:14.699Z,100102.03
2023-02-01T18:00:43.891Z,100105.53
2023-02-01T18:03:22.750Z,100101.16
2023-02-01T18:05:53.382Z,100072.41
2023-02-01T18:08:22.810Z,100090.69
2023-02-01T18:10:54.406Z,100101.16
2023-02-01T18:13:22.321Z,100101.16
2023-02-01T18:15:51.409Z,100087.19
2023-02-01T18:18:19.063Z,100089.81
2023-02-01T18:20:46.768Z,100079.34
2023-02-01T18:23:16.855Z,100104.63
2023-02-01T18:25:45.697Z,100090.69
2023-02-01T18:28:13.347Z,100106.38
2023-02-01T18:30:41.149Z,100095.03
2023-02-01T18:33:12.130Z,100090.69
2023-02-01T18:35:39.852Z,100088.94
2023-02-01T18:38:07.736Z,100088.94
2023-02-01T18:40:36.785Z,100064.56
2023-02-01T18:43:04.671Z,100076.75
2023-02-01T18:45:35.140Z,100049.72
2023-02-01T18:48:03.082Z,100082.00
2023-02-01T18:50:32.746Z,100084.59
2023-02-01T18:53:01.490Z,100078.47
2023-02-01T18:55:30.427Z,100061.94
2023-02-01T18:57:58.088Z,100087.22
2023-02-01T19:00:26.886Z,100082.84
2023-02-01T19:02:54.591Z,100102.94
2023-02-01T19:05:23.360Z,100104.69
2023-02-01T19:07:52.846Z,100102.03
2023-02-01T19:10:22.281Z,100104.69
2023-02-01T19:12:50.625Z,100099.44
2023-02-01T19:15:19.649Z,100119.47
2023-02-01T19:17:48.574Z,100120.34
2023-02-01T19:20:18.142Z,100106.38
2023-02-01T19:22:47.318Z,100104.66
2023-02-01T19:25:18.523Z,100113.38
2023-02-01T19:27:46.291Z,100114.22
2023-02-01T19:30:14.363Z,100116.00
2023-02-01T19:32:49.809Z,100109.00
2023-02-01T19:35:19.515Z,100103.78
2023-02-01T19:37:47.465Z,100099.41
2023-02-01T19:40:18.138Z,100102.03
2023-02-01T19:42:46.508Z,100102.91
2023-02-01T19:45:16.068Z,100107.28
2023-02-01T19:47:43.747Z,100090.72
2023-02-01T19:50:12.598Z,100090.72
2023-02-01T19:52:40.368Z,100092.47
2023-02-01T19:55:08.600Z,100090.72
2023-02-01T19:57:37.630Z,100087.19
2023-02-01T20:00:06.475Z,100081.16
2023-02-01T20:02:33.337Z,100075.00
2023-02-01T20:05:01.049Z,100079.38
2023-02-01T20:07:28.770Z,100082.84
2023-02-01T20:09:56.546Z,100081.97
2023-02-01T20:12:24.197Z,100072.41
2023-02-01T20:14:55.443Z,100074.13
2023-02-01T20:17:23.284Z,100067.16
2023-02-01T20:19:51.016Z,100061.06
2023-02-01T20:22:19.172Z,100076.75
2023-02-01T20:24:46.887Z,100068.03
2023-02-01T20:27:15.389Z,100074.13
2023-02-01T20:29:43.170Z,100071.53
2023-02-01T20:32:12.223Z,100082.84
2023-02-01T20:34:41.119Z,100091.56
2023-02-01T20:37:08.929Z,100127.31
2023-02-01T20:39:36.609Z,100168.25
2023-02-01T20:42:06.356Z,100156.91
2023-02-01T20:44:34.082Z,100157.72
2023-02-01T20:47:03.048Z,100154.19
2023-02-01T20:49:32.293Z,100147.97
2023-02-01T20:52:00.014Z,100146.19
2023-02-01T20:54:27.834Z,100167.06
2023-02-01T20:56:55.481Z,100152.25
2023-02-01T20:59:23.315Z,100139.19
2023-02-01T21:01:53.848Z,100129.59
2023-02-01T21:04:22.220Z,100150.47
2023-02-01T21:06:51.477Z,100129.59
2023-02-01T21:09:19.241Z,100142.63
2023-02-01T21:11:46.940Z,100127.00
2023-02-01T21:14:14.792Z,100116.53
2023-02-01T21:16:42.542Z,100126.13
2023-02-01T21:19:19.221Z,100129.59
2023-02-01T21:21:47.198Z,100127.00
2023-02-01T21:24:17.001Z,100148.69
2023-02-01T21:26:44.761Z,100160.00
2023-02-01T21:29:16.494Z,100127.81
2023-02-01T21:31:44.201Z,100170.41
2023-02-01T21:34:12.153Z,100154.75
2023-02-01T21:36:40.025Z,100151.28
2023-02-01T21:39:10.732Z,100135.63
2023-02-01T21:41:57.363Z,100118.19
2023-02-01T21:44:25.142Z,100156.59
2023-02-01T21:46:55.617Z,100151.41
2023-02-01T21:49:23.746Z,100149.72
2023-02-01T21:51:51.611Z,100149.72
2023-02-01T21:54:19.339Z,100141.06
2023-02-01T21:56:48.678Z,100151.47
2023-02-01T21:59:16.396Z,100152.41
2023-02-01T22:01:44.383Z,100115.78
2023-02-01T22:04:12.098Z,100112.22
2023-02-01T22:06:45.793Z,100127.97
2023-02-01T22:09:17.071Z,100109.66
2023-02-01T22:11:44.838Z,100126.28
2023-02-01T22:14:14.213Z,100160.34
2023-02-01T22:16:42.219Z,100158.59
2023-02-01T22:19:12.313Z,100161.22
2023-02-01T22:21:41.932Z,100154.25
2023-02-01T22:24:10.671Z,100166.47
2023-02-01T22:26:38.404Z,100175.19
2023-02-01T22:29:06.415Z,100080.09
2023-02-01T22:31:35.904Z,100142.03
2023-02-01T22:34:04.021Z,100163.84
2023-02-01T22:36:31.818Z,100174.31
2023-02-01T22:38:59.480Z,100207.44
2023-02-01T22:41:27.475Z,100183.91
2023-02-01T22:43:55.133Z,100183.03
2023-02-01T22:46:25.646Z,100186.53
2023-02-01T22:48:54.851Z,100184.78
2023-02-01T22:51:23.327Z,100191.75
2023-02-01T22:53:57.357Z,100193.47
2023-02-01T22:56:26.018Z,100196.97
2023-02-01T22:58:57.417Z,100155.06
2023-02-01T23:01:25.179Z,100195.19
2023-02-01T23:03:57.111Z,100148.06
2023-02-01T23:06:24.983Z,100192.53
2023-02-01T23:08:55.931Z,100188.16
2023-02-01T23:11:23.776Z,100177.72
2023-02-01T23:13:51.464Z,100166.38
2023-02-01T23:16:19.244Z,100162.06
2023-02-01T23:18:46.992Z,100148.06
2023-02-01T23:21:17.003Z,100139.34
2023-02-01T23:23:46.998Z,100230.91
2023-02-01T23:26:14.881Z,100174.16
2023-02-01T23:28:42.769Z,100233.53
2023-02-01T23:31:11.238Z,100221.25
2023-02-01T23:33:39.346Z,100240.47
2023-02-01T23:36:08.520Z,100222.06
2023-02-01T23:38:37.686Z,100229.06
2023-02-01T23:41:06.113Z,100244.75
2023-02-01T23:43:51.299Z,100238.66
2023-02-01T23:46:18.979Z,100227.31
2023-02-01T23:48:47.808Z,100172.28
2023-02-01T23:51:16.020Z,100233.44
2023-02-01T23:53:45.426Z,100232.56
2023-02-01T23:56:17.914Z,100232.63
2023-02-01T23:58:51.850Z,100233.50
